El Paso, TX

11:53 PM MST on February 09, 2016 (GMT -0700)
APRSWXNET | | Change Station
CLOSE
Current Station
Personal Weather Station
Location: Chaparral, NM
Elevation: 3943 ft
Nearby Weather Stations

Elev 3943 ft 32.00 °N, 106.57 °W | Updated 35 minutes ago

Clear
Clear
45 °F
Feels Like 45 °F
N
0
Wind Variable Wind from WNW
Gusts 0.0 mph

Today
High -- | Low -- °F
--% Chance of Precip.
Yesterday
High -- | Low -- °F
Precip. -- in
Pressure 30.26 in
Visibility 10.0 miles
Clouds Clear
Windchill 45 °F
Dew Point 20 °F
Humidity 37%
Rainfall in
Snow Depth Not available.
6:54 AM 5:47 PM
Waxing Crescent, 4% visible
METAR KELP 100651Z 00000KT 10SM CLR 07/M08 A3034 RMK AO2 SLP247 T00671078 401890000
Pressure 30.26 in
Visibility 10.0 miles
Clouds Clear
Windchill 45 °F
Dew Point 20 °F
Humidity 37%
Rainfall in
Snow Depth Not available.
6:54 AM 5:47 PM
Waxing Crescent, 4% visible
METAR KELP 100651Z 00000KT 10SM CLR 07/M08 A3034 RMK AO2 SLP247 T00671078 401890000

10-Day Weather Forecast

Almanac

Astronomy

Feb. 09, 2016 Rise Set
Actual Time
Civil Twilight
Nautical Twilight
Astronomical Twilight
Moon
Length of Visible Light
Length of Day
Tomorrow will be .
, % of the Moon is Illuminated

Today's Extremes

State Highs State Lows

Community

WunderPhotos

Upload Photos

1,891,826 photos uploaded!

WunderBlog® & News

Nearby

Air Quality

  Air Quality AQ Index Pollutant
Not available.

Snow Depth

Station Depth Elevation

Earthquake Activity

City Distance Mag. Time & Date
Minimum magnitude displayed is 2.5.

Coastal Water Temperatures

Place Temperature

Stations

Nearby Weather Stations

Station Location Temp. Windchill Dew Point Humidity Wind Precip. Elev Updated Type
                   

Watches & Warnings

There are currently no watches in effect.